Time;durP1;ratioP1;P1;durP2;ratioP2;P2;SDS_P1;SDS_P2;PMS_P1;PMS_P2;Temp;Humidity;BMP_temperature;BMP_pressure;BME280_temperature;BME280_humidity;BME280_pressure;Samples;Min_cycle;Max_cycle;Signal;HPM_P1;HPM_P2
2022/05/05 00:01:44;;;;;;;6.88;4.68;;;;;;;9.41;86.93;94056.09;4972897;28;20055;-67
2022/05/05 00:04:12;;;;;;;7.20;4.57;;;;;;;9.47;86.45;94057.22;4972488;28;20054;-66
2022/05/05 00:06:39;;;;;;;10.85;6.00;;;;;;;9.04;87.97;94054.06;4972698;28;20055;-62
2022/05/05 00:09:06;;;;;;;9.87;5.50;;;;;;;8.87;89.58;94052.97;4972424;28;20057;-61
2022/05/05 00:14:27;;;;;;;8.38;5.50;;;;;;;9.10;89.21;94050.47;4970834;28;20124;-60
2022/05/05 00:17:01;;;;;;;7.15;4.88;;;;;;;9.19;88.34;94039.06;4976751;28;20507;-61
2022/05/05 00:19:30;;;;;;;7.75;5.18;;;;;;;9.23;88.47;94050.00;4992238;28;20041;-66
2022/05/05 00:21:57;;;;;;;8.23;5.40;;;;;;;9.26;88.61;94040.97;4991417;28;20492;-62
2022/05/05 00:24:24;;;;;;;8.13;5.20;;;;;;;9.11;88.22;94043.81;4991958;28;20058;-60
2022/05/05 00:26:52;;;;;;;8.15;5.00;;;;;;;9.05;88.53;94042.69;4991375;28;20384;-59
2022/05/05 00:29:19;;;;;;;11.43;5.78;;;;;;;9.07;89.08;94045.78;4991777;28;20038;-60
2022/05/05 00:31:47;;;;;;;15.18;6.65;;;;;;;8.94;90.38;94052.94;4991347;28;20437;-60
2022/05/05 00:34:14;;;;;;;10.03;5.80;;;;;;;8.94;89.90;94056.44;4991339;28;20049;-61
2022/05/05 00:36:41;;;;;;;8.77;5.93;;;;;;;8.83;90.41;94050.25;4991766;28;20072;-62
2022/05/05 00:39:11;;;;;;;8.85;5.85;;;;;;;8.67;91.03;94053.50;4990945;28;20430;-65
2022/05/05 00:41:47;;;;;;;9.18;5.70;;;;;;;8.74;91.33;94050.72;4991478;28;20081;-66
2022/05/05 00:44:15;;;;;;;8.98;5.68;;;;;;;8.75;91.44;94046.81;4973829;28;20412;-64
2022/05/05 00:46:50;;;;;;;9.13;5.70;;;;;;;8.89;91.29;94043.19;4974259;28;20517;-61
2022/05/05 00:49:18;;;;;;;10.38;6.32;;;;;;;8.98;90.67;94053.69;4990579;28;20780;-60
2022/05/05 00:51:45;;;;;;;9.10;6.22;;;;;;;9.00;90.30;94043.13;4991509;28;20053;-62
2022/05/05 00:54:12;;;;;;;9.25;5.70;;;;;;;9.02;90.80;94038.03;4973473;28;20494;-60
2022/05/05 00:56:40;;;;;;;9.68;5.70;;;;;;;9.09;90.20;94035.22;4974320;28;20060;-61
2022/05/05 00:59:08;;;;;;;8.20;5.67;;;;;;;9.05;90.55;94030.97;4990703;28;20060;-63
2022/05/05 01:01:35;;;;;;;9.77;5.65;;;;;;;9.09;90.53;94028.97;4991296;28;20068;-65
2022/05/05 01:04:02;;;;;;;9.93;5.57;;;;;;;9.05;90.32;94039.16;4973123;28;20042;-69
2022/05/05 01:06:29;;;;;;;7.55;5.07;;;;;;;9.09;90.06;94037.97;4991069;28;20077;-62
2022/05/05 01:08:56;;;;;;;8.10;5.20;;;;;;;9.13;89.89;94035.19;4990512;28;20053;-63
2022/05/05 01:11:23;;;;;;;11.90;6.13;;;;;;;9.05;89.51;94033.69;4990774;28;20088;-60
2022/05/05 01:13:50;;;;;;;9.65;5.70;;;;;;;8.89;90.38;94039.69;4990958;28;20050;-59
2022/05/05 01:16:18;;;;;;;8.55;5.68;;;;;;;8.94;89.93;94037.28;4990099;28;20749;-63
2022/05/05 01:18:44;;;;;;;13.50;8.55;;;;;;;8.86;90.36;94040.50;4971445;28;20093;-67
2022/05/05 01:21:11;;;;;;;37.15;18.13;;;;;;;8.91;90.98;94038.09;4971188;28;20042;-63
2022/05/05 01:23:39;;;;;;;37.23;10.73;;;;;;;8.91;90.41;94046.28;4971690;28;20426;-60
2022/05/05 01:28:52;;;;;;;10.90;6.13;;;;;;;8.99;90.53;94050.56;4971052;28;20047;-57
2022/05/05 01:31:19;;;;;;;9.80;5.88;;;;;;;8.92;90.08;94042.41;4971250;28;20046;-60
2022/05/05 01:33:46;;;;;;;8.00;5.45;;;;;;;8.76;90.08;94047.59;4971289;28;20046;-64
2022/05/05 01:36:12;;;;;;;9.67;5.90;;;;;;;8.53;92.07;94048.91;4970934;28;20051;-62
2022/05/05 01:38:41;;;;;;;10.05;5.90;;;;;;;8.53;92.80;94048.91;4971346;28;20057;-61
2022/05/05 01:41:10;;;;;;;11.15;6.35;;;;;;;8.64;92.22;94051.56;4970814;28;20404;-62
2022/05/05 01:43:39;;;;;;;12.93;6.63;;;;;;;8.77;91.75;94049.13;4970640;28;20076;-60
2022/05/05 01:46:06;;;;;;;14.00;6.85;;;;;;;8.88;91.08;94052.59;4970735;28;20120;-60
2022/05/05 01:48:33;;;;;;;11.73;6.17;;;;;;;8.94;90.94;94042.78;4971381;28;20043;-60
2022/05/05 01:51:01;;;;;;;11.45;6.65;;;;;;;8.90;90.97;94049.47;4970600;28;20045;-63
2022/05/05 01:53:28;;;;;;;10.18;6.22;;;;;;;8.93;90.68;94051.38;4971049;28;20043;-61
2022/05/05 01:55:55;;;;;;;9.85;5.82;;;;;;;8.90;91.18;94038.50;4970717;28;20051;-60
2022/05/05 01:58:23;;;;;;;8.50;5.78;;;;;;;8.93;90.91;94054.91;4953702;28;20047;-60
2022/05/05 02:00:49;;;;;;;10.80;6.50;;;;;;;8.92;90.94;94058.81;4971101;28;20418;-62
2022/05/05 02:03:16;;;;;;;12.48;6.40;;;;;;;8.83;91.24;94047.53;4953092;28;20031;-64
2022/05/05 02:05:45;;;;;;;15.02;9.05;;;;;;;8.89;90.23;94056.09;4970950;28;20525;-60
2022/05/05 02:08:12;;;;;;;12.90;7.53;;;;;;;8.97;90.27;94054.88;4970561;28;20458;-61
2022/05/05 02:10:39;;;;;;;14.73;7.18;;;;;;;8.99;89.88;94056.03;4970830;28;20411;-65
2022/05/05 02:13:07;;;;;;;11.63;6.67;;;;;;;8.76;91.30;94051.09;4974716;28;20046;-64
2022/05/05 02:15:34;;;;;;;12.55;6.43;;;;;;;8.71;91.14;94053.47;4982126;28;20035;-60
2022/05/05 02:18:10;;;;;;;10.00;6.25;;;;;;;8.56;91.97;94050.81;4983899;28;20487;-60
2022/05/05 02:20:40;;;;;;;9.77;6.20;;;;;;;8.57;92.30;94049.66;4990338;28;20043;-66
2022/05/05 02:23:08;;;;;;;11.77;6.20;;;;;;;8.75;91.82;94046.00;4989599;28;20042;-60
2022/05/05 02:25:35;;;;;;;11.03;5.77;;;;;;;8.83;90.87;94044.00;4990111;28;20061;-59
2022/05/05 02:28:02;;;;;;;10.75;6.05;;;;;;;8.87;90.80;94051.00;4989723;28;20049;-66
2022/05/05 02:30:29;;;;;;;10.38;6.30;;;;;;;8.84;90.76;94054.56;4990278;28;20427;-60
2022/05/05 02:32:56;;;;;;;9.85;6.18;;;;;;;8.86;90.60;94051.44;4989540;28;20129;-62
2022/05/05 02:35:23;;;;;;;11.52;6.35;;;;;;;8.78;90.74;94048.72;4990150;28;20049;-66
2022/05/05 02:40:37;;;;;;;11.95;6.70;;;;;;;8.80;90.71;94045.59;4989245;28;20587;-59
2022/05/05 02:43:04;;;;;;;11.05;7.05;;;;;;;8.84;90.61;94040.13;4989338;28;20035;-60
2022/05/05 02:45:31;;;;;;;12.38;6.72;;;;;;;8.80;90.50;94051.06;4990024;28;20384;-62
2022/05/05 02:47:58;;;;;;;12.52;6.50;;;;;;;8.78;90.99;94048.72;4989679;28;20488;-60
2022/05/05 02:50:26;;;;;;;11.57;6.93;;;;;;;8.83;90.79;94039.31;4972980;28;20479;-59
2022/05/05 02:52:55;;;;;;;18.25;7.78;;;;;;;8.86;90.74;94043.22;4989746;28;20046;-60
2022/05/05 02:55:22;;;;;;;19.55;7.97;;;;;;;8.83;90.65;94044.78;4991557;28;20042;-60
2022/05/05 02:57:50;;;;;;;16.05;7.53;;;;;;;8.90;90.51;94036.53;4993765;28;20059;-61
2022/05/05 03:00:17;;;;;;;17.58;7.60;;;;;;;8.91;90.67;94034.56;4992709;28;20617;-62
2022/05/05 03:02:44;;;;;;;17.23;7.07;;;;;;;8.93;90.78;94032.22;4993705;28;20050;-59
2022/05/05 03:05:15;;;;;;;15.07;6.93;;;;;;;8.55;91.43;94032.06;4992838;28;20061;-59
2022/05/05 03:07:42;;;;;;;13.18;7.10;;;;;;;8.59;91.75;94024.63;4993228;28;20046;-60
2022/05/05 03:10:11;;;;;;;14.77;7.25;;;;;;;8.70;91.23;94022.59;4992705;28;20038;-59
2022/05/05 03:12:38;;;;;;;14.45;7.20;;;;;;;8.73;91.17;94026.47;4993052;28;20050;-59
2022/05/05 03:15:06;;;;;;;14.27;6.33;;;;;;;8.65;91.60;94025.75;4992656;28;20043;-59
2022/05/05 03:17:34;;;;;;;12.50;6.78;;;;;;;8.72;90.65;94022.97;4974383;28;20042;-60
2022/05/05 03:20:01;;;;;;;14.20;6.90;;;;;;;8.56;92.08;94026.19;4978686;28;20055;-61
2022/05/05 03:22:27;;;;;;;15.80;7.57;;;;;;;8.26;93.53;94017.75;4973081;28;20046;-68
2022/05/05 03:24:54;;;;;;;12.32;6.80;;;;;;;8.35;93.50;94024.34;4973243;28;20051;-63
2022/05/05 03:27:21;;;;;;;12.20;6.80;;;;;;;8.46;93.49;94029.78;4973429;28;20039;-60
2022/05/05 03:29:47;;;;;;;12.48;6.80;;;;;;;8.51;93.09;94028.56;4973631;28;20053;-60
2022/05/05 03:32:15;;;;;;;11.43;6.85;;;;;;;8.59;92.56;94016.41;4971664;28;20509;-63
2022/05/05 03:34:42;;;;;;;11.88;6.53;;;;;;;8.62;91.62;94018.34;4973463;28;20058;-62
2022/05/05 03:37:09;;;;;;;12.20;6.88;;;;;;;8.22;93.56;94023.22;4972873;28;20047;-69
2022/05/05 03:39:36;;;;;;;10.23;6.40;;;;;;;8.35;92.77;94018.88;4973318;28;20045;-63
2022/05/05 03:42:03;;;;;;;8.68;5.97;;;;;;;8.49;93.49;94023.53;4972839;28;20051;-61
2022/05/05 03:44:30;;;;;;;9.43;6.10;;;;;;;8.58;92.08;94023.84;4971968;28;20078;-63
2022/05/05 03:46:57;;;;;;;10.88;6.13;;;;;;;8.60;92.02;94020.72;4972599;28;20050;-61
2022/05/05 03:49:24;;;;;;;10.32;6.70;;;;;;;8.56;92.35;94019.97;4973125;28;20039;-61
2022/05/05 03:51:50;;;;;;;9.07;5.67;;;;;;;8.57;91.46;94030.50;4973244;28;20400;-66
2022/05/05 03:54:17;;;;;;;86.68;47.00;;;;;;;8.58;91.85;94021.09;4972237;28;20153;-65
2022/05/05 03:56:44;;;;;;;34.65;20.67;;;;;;;8.57;91.77;94019.56;4973003;28;20072;-61
2022/05/05 03:59:11;;;;;;;15.02;8.60;;;;;;;8.60;92.00;94026.19;4972246;28;20062;-60
2022/05/05 04:01:37;;;;;;;10.10;6.45;;;;;;;8.40;91.83;94028.59;4972935;28;20062;-64
2022/05/05 04:04:04;;;;;;;9.93;5.70;;;;;;;8.36;92.63;94025.88;4972373;28;20427;-61
2022/05/05 04:06:32;;;;;;;9.30;6.50;;;;;;;8.35;92.08;94024.34;4972243;28;20039;-65
2022/05/05 04:09:00;;;;;;;13.73;6.88;;;;;;;8.42;92.46;94031.75;4972357;28;20064;-63
2022/05/05 04:11:26;;;;;;;12.65;6.45;;;;;;;8.46;91.91;94026.28;4971243;28;20039;-63
2022/05/05 04:13:54;;;;;;;11.07;6.82;;;;;;;8.44;91.72;94023.94;4972061;28;20043;-59
2022/05/05 04:16:20;;;;;;;9.43;6.20;;;;;;;8.54;91.21;94025.03;4974833;28;20050;-60
2022/05/05 04:18:47;;;;;;;10.18;6.45;;;;;;;8.56;90.83;94031.66;4970851;28;20054;-61
2022/05/05 04:21:14;;;;;;;11.40;7.25;;;;;;;8.59;91.20;94038.28;4971901;28;20373;-62
2022/05/05 04:23:41;;;;;;;10.55;6.38;;;;;;;8.59;90.64;94032.81;4972420;28;20043;-60
2022/05/05 04:26:11;;;;;;;10.05;6.13;;;;;;;8.55;90.10;94032.06;4971921;28;20112;-63
2022/05/05 04:28:40;;;;;;;10.00;6.63;;;;;;;8.58;90.17;94034.00;4972167;28;20042;-61
2022/05/05 04:31:10;;;;;;;12.70;7.05;;;;;;;8.61;90.48;94027.72;4971644;28;20039;-63
2022/05/05 04:33:38;;;;;;;10.55;6.50;;;;;;;8.64;90.21;94035.16;4971172;28;20077;-64
2022/05/05 04:36:07;;;;;;;9.63;6.30;;;;;;;8.67;89.94;94039.84;4971750;28;20054;-61
2022/05/05 04:38:34;;;;;;;11.23;6.43;;;;;;;8.63;90.26;94041.00;4972072;28;20038;-63
2022/05/05 04:41:02;;;;;;;10.67;5.80;;;;;;;8.67;89.32;94039.84;4971528;28;20077;-64
2022/05/05 04:43:28;;;;;;;11.77;6.78;;;;;;;8.66;89.25;94032.78;4971963;28;20049;-63
2022/05/05 04:45:55;;;;;;;31.80;18.98;;;;;;;8.68;89.72;94046.06;4971558;28;20051;-61
2022/05/05 04:48:22;;;;;;;13.55;8.35;;;;;;;8.47;90.74;94038.75;4954701;28;20053;-60
2022/05/05 04:50:49;;;;;;;10.98;7.00;;;;;;;8.68;90.47;94038.63;4971911;28;20055;-61
2022/05/05 04:53:16;;;;;;;9.97;6.80;;;;;;;9.06;89.43;94038.00;4971232;28;20039;-63
2022/05/05 04:55:42;;;;;;;15.10;7.70;;;;;;;9.23;88.23;94044.50;4971760;28;20047;-67
2022/05/05 04:58:09;;;;;;;13.07;7.38;;;;;;;9.35;87.72;94039.31;4971062;28;20491;-61
2022/05/05 05:00:36;;;;;;;15.63;8.60;;;;;;;9.57;86.53;94050.84;4971798;28;20039;-60
2022/05/05 05:03:03;;;;;;;15.02;7.78;;;;;;;9.81;85.73;94048.28;4954065;28;20100;-60
2022/05/05 05:05:30;;;;;;;16.83;8.37;;;;;;;10.02;84.96;94044.56;4971563;28;20045;-60
2022/05/05 05:07:56;;;;;;;11.18;7.47;;;;;;;9.96;84.69;94051.66;4953595;28;20047;-67
2022/05/05 05:10:23;;;;;;;15.93;7.80;;;;;;;9.84;84.76;94055.72;4971343;28;20045;-64
2022/05/05 05:12:50;;;;;;;11.93;7.50;;;;;;;9.84;85.42;94054.91;4971532;28;20495;-60
2022/05/05 05:15:17;;;;;;;13.77;7.32;;;;;;;9.43;87.12;94063.91;4970498;28;20744;-60
2022/05/05 05:17:44;;;;;;;12.23;6.93;;;;;;;9.38;87.85;94063.16;4981943;28;20453;-61
2022/05/05 05:20:12;;;;;;;9.80;6.20;;;;;;;9.27;88.18;94058.94;4972704;28;20398;-67
2022/05/05 05:22:38;;;;;;;11.90;6.38;;;;;;;9.25;88.29;94064.81;4990617;28;20410;-61
2022/05/05 05:25:05;;;;;;;11.95;6.50;;;;;;;9.31;88.96;94065.94;4990325;28;20046;-61
2022/05/05 05:27:32;;;;;;;12.10;6.80;;;;;;;9.54;88.27;94068.13;4990785;28;20045;-62
2022/05/05 05:29:59;;;;;;;9.23;6.40;;;;;;;9.59;87.56;94066.91;4973124;28;20072;-60
2022/05/05 05:32:26;;;;;;;12.85;7.07;;;;;;;9.51;88.23;94068.16;4990550;28;20043;-60
2022/05/05 05:34:52;;;;;;;11.88;7.53;;;;;;;9.51;87.73;94066.19;4972931;28;20170;-63
2022/05/05 05:37:20;;;;;;;13.43;7.53;;;;;;;9.58;87.72;94068.09;4973606;28;20071;-65
2022/05/05 05:39:46;;;;;;;13.13;8.00;;;;;;;9.68;87.12;94064.47;4990493;28;20077;-63
2022/05/05 05:42:13;;;;;;;14.10;7.40;;;;;;;9.82;86.99;94073.72;4989865;28;20485;-60
2022/05/05 05:44:40;;;;;;;14.80;8.32;;;;;;;9.80;86.40;94074.94;4990455;28;20050;-60
2022/05/05 05:47:10;;;;;;;30.45;17.73;;;;;;;9.94;86.22;94084.16;4989884;28;20058;-62
2022/05/05 05:49:37;;;;;;;30.88;17.45;;;;;;;9.98;85.84;94076.72;4990388;28;20062;-62
2022/05/05 05:52:04;;;;;;;12.43;7.88;;;;;;;9.73;86.50;94090.66;4989818;28;20034;-61
2022/05/05 05:54:31;;;;;;;11.67;7.20;;;;;;;9.39;88.72;94085.84;4990524;28;20039;-65
2022/05/05 05:56:57;;;;;;;12.35;7.55;;;;;;;9.31;89.61;94084.34;4989559;28;20046;-62
2022/05/05 05:59:24;;;;;;;10.23;6.93;;;;;;;9.44;89.71;94087.38;4990554;28;20517;-66
2022/05/05 06:04:36;;;;;;;12.30;7.40;;;;;;;9.50;89.33;94089.28;4990451;28;20100;-61
2022/05/05 06:07:03;;;;;;;11.87;7.63;;;;;;;9.37;89.88;94088.97;4989736;28;20057;-61
2022/05/05 06:09:30;;;;;;;12.95;7.60;;;;;;;9.19;91.32;94094.63;4973265;28;20450;-62
2022/05/05 06:11:57;;;;;;;14.13;8.18;;;;;;;9.29;91.46;94098.44;4989304;28;20410;-61
2022/05/05 06:14:23;;;;;;;13.85;8.27;;;;;;;9.37;91.58;94104.66;4990185;28;20038;-65
2022/05/05 06:16:50;;;;;;;16.27;8.48;;;;;;;9.41;91.42;94105.41;4974900;28;20038;-60
2022/05/05 06:19:17;;;;;;;12.20;7.80;;;;;;;9.59;90.28;94116.97;4987442;28;20402;-60
2022/05/05 06:21:44;;;;;;;15.98;8.90;;;;;;;9.70;90.03;94113.38;4989599;28;20457;-67
2022/05/05 06:24:10;;;;;;;13.70;8.48;;;;;;;9.70;89.13;94113.38;4989446;28;20039;-64
2022/05/05 06:26:37;;;;;;;13.85;8.07;;;;;;;9.56;89.05;94123.28;4990065;28;20066;-62
2022/05/05 06:29:04;;;;;;;12.05;8.32;;;;;;;9.71;89.56;94123.16;4989568;28;20042;-59
2022/05/05 06:31:31;;;;;;;13.40;8.40;;;;;;;9.23;91.16;94126.66;4993141;28;20050;-61
2022/05/05 06:33:58;;;;;;;14.98;9.02;;;;;;;9.42;90.54;94122.59;4992823;28;20049;-60
2022/05/05 06:36:25;;;;;;;14.65;9.48;;;;;;;8.97;93.09;94131.50;4993678;28;20034;-65
2022/05/05 06:38:52;;;;;;;13.63;8.65;;;;;;;9.21;92.27;94132.53;4993187;28;20406;-61
2022/05/05 06:41:20;;;;;;;13.60;8.55;;;;;;;9.50;91.46;94137.84;4993230;28;20402;-69
2022/05/05 06:43:47;;;;;;;11.90;7.90;;;;;;;9.68;89.85;94141.19;4981686;28;20042;-63
2022/05/05 06:46:13;;;;;;;12.88;8.00;;;;;;;9.94;89.06;94144.47;4993032;28;20060;-59
2022/05/05 06:48:44;;;;;;;12.65;7.80;;;;;;;9.95;88.55;94148.78;4993614;28;20103;-65
2022/05/05 06:51:10;;;;;;;15.57;9.27;;;;;;;10.00;89.76;94140.16;4993061;28;20437;-59
2022/05/05 06:53:37;;;;;;;16.73;9.73;;;;;;;10.09;89.12;94140.44;4976372;28;20072;-59
2022/05/05 06:56:05;;;;;;;14.20;9.53;;;;;;;9.68;90.76;94143.13;4992871;28;20070;-62
2022/05/05 06:58:31;;;;;;;17.45;10.52;;;;;;;9.55;92.03;94140.13;4993423;28;20089;-62
2022/05/05 07:03:43;;;;;;;18.58;11.60;;;;;;;9.54;92.88;94144.06;4993495;28;20054;-62
2022/05/05 07:06:10;;;;;;;17.35;10.90;;;;;;;9.74;92.86;94147.03;4992674;28;20401;-59
2022/05/05 07:11:23;;;;;;;20.77;11.18;;;;;;;9.95;92.50;94148.78;4991900;28;20061;-63
2022/05/05 07:13:50;;;;;;;19.10;11.15;;;;;;;9.95;90.54;94137.84;4993175;28;20426;-59
2022/05/05 07:16:17;;;;;;;20.27;11.05;;;;;;;9.95;89.65;94140.56;4991991;28;20438;-65
2022/05/05 07:18:43;;;;;;;16.02;9.50;;;;;;;9.88;89.13;94140.63;4993018;28;20050;-60
2022/05/05 07:21:10;;;;;;;15.57;9.97;;;;;;;9.87;89.37;94144.56;4992418;28;20050;-59
2022/05/05 07:23:37;;;;;;;15.52;8.70;;;;;;;9.76;90.23;94144.66;4992990;28;20501;-62
2022/05/05 07:26:04;;;;;;;14.68;9.90;;;;;;;9.78;90.78;94151.28;4992318;28;20065;-61
2022/05/05 07:28:30;;;;;;;14.75;9.10;;;;;;;9.87;89.30;94141.81;4992918;28;20384;-61
2022/05/05 07:30:57;;;;;;;13.88;8.60;;;;;;;9.98;89.21;94145.25;4992461;28;20139;-65
2022/05/05 07:33:25;;;;;;;15.73;9.13;;;;;;;10.00;89.74;94142.88;4993020;28;20042;-60
2022/05/05 07:35:52;;;;;;;15.35;9.15;;;;;;;10.19;88.68;94144.25;4992480;28;20259;-58
2022/05/05 07:38:18;;;;;;;14.73;9.57;;;;;;;10.27;87.79;94142.22;4992762;28;20511;-60
2022/05/05 07:40:47;;;;;;;15.18;9.60;;;;;;;10.62;87.35;94148.53;4992241;28;20047;-62
2022/05/05 07:43:14;;;;;;;16.35;9.68;;;;;;;10.85;86.54;94154.13;4991469;28;20050;-60
2022/05/05 07:45:41;;;;;;;14.07;8.97;;;;;;;11.37;85.05;94148.31;4992678;28;20042;-65
2022/05/05 07:48:08;;;;;;;14.60;9.10;;;;;;;11.66;83.84;94147.88;4974527;28;20416;-62
2022/05/05 07:50:35;;;;;;;12.35;8.55;;;;;;;11.64;81.77;94149.50;4992529;28;20049;-61
2022/05/05 07:53:03;;;;;;;13.30;8.80;;;;;;;11.81;81.22;94148.44;4991917;28;20049;-59
2022/05/05 07:55:29;;;;;;;13.73;8.63;;;;;;;12.01;80.28;94145.00;4992442;28;20044;-59
2022/05/05 07:57:57;;;;;;;10.90;7.77;;;;;;;12.43;78.06;94137.19;4992021;28;20054;-63
2022/05/05 08:00:24;;;;;;;11.05;7.75;;;;;;;13.23;76.46;94142.66;4992356;28;20049;-59
2022/05/05 08:02:51;;;;;;;10.02;7.10;;;;;;;14.14;72.31;94145.66;4992460;28;20050;-61
2022/05/05 08:05:18;;;;;;;17.05;10.52;;;;;;;14.40;69.62;94157.63;4991444;28;20924;-60
2022/05/05 08:07:48;;;;;;;10.48;6.65;;;;;;;14.93;67.60;94166.50;4974876;28;20042;-60
2022/05/05 08:10:20;;;;;;;8.90;6.60;;;;;;;14.98;65.24;94167.94;4991523;28;20046;-60
2022/05/05 08:12:48;;;;;;;8.65;6.63;;;;;;;15.10;66.25;94169.19;4985644;28;20042;-61
2022/05/05 08:15:16;;;;;;;9.40;6.78;;;;;;;15.28;65.33;94166.66;4970757;28;20050;-63
2022/05/05 08:17:44;;;;;;;8.45;6.07;;;;;;;15.20;65.52;94159.03;4983578;28;20490;-65
2022/05/05 08:20:11;;;;;;;8.50;6.32;;;;;;;15.12;64.89;94175.03;4991399;28;20045;-60
2022/05/05 08:22:39;;;;;;;8.53;6.60;;;;;;;15.11;65.03;94165.97;4991897;28;20050;-60
2022/05/05 08:30:36;;;;;;;9.27;6.53;;;;;;;14.17;68.11;94164.91;4990848;28;20462;-59
2022/05/05 08:33:03;;;;;;;9.38;6.90;;;;;;;14.06;68.63;94174.66;4990914;28;20054;-61
2022/05/05 08:35:30;;;;;;;8.50;6.27;;;;;;;13.78;69.14;94174.13;4974435;28;20053;-59
2022/05/05 08:37:57;;;;;;;9.10;6.40;;;;;;;14.22;68.92;94174.63;4991062;28;20054;-64
2022/05/05 08:40:26;;;;;;;9.68;6.63;;;;;;;14.03;69.00;94173.53;4991252;28;20049;-62
2022/05/05 08:42:53;;;;;;;9.80;6.63;;;;;;;14.14;68.18;94181.53;4991139;28;20050;-62
2022/05/05 08:45:21;;;;;;;8.73;6.30;;;;;;;14.27;67.77;94185.16;4991292;28;20048;-61
2022/05/05 08:47:49;;;;;;;9.27;6.87;;;;;;;13.82;67.88;94185.84;4991618;28;20065;-58
2022/05/05 08:50:18;;;;;;;11.23;7.63;;;;;;;14.26;67.96;94172.56;4990875;28;20659;-58
2022/05/05 08:52:50;;;;;;;9.38;6.70;;;;;;;13.45;68.82;94179.59;4973946;28;20060;-59
2022/05/05 08:55:21;;;;;;;7.82;5.47;;;;;;;12.66;70.38;94185.91;4990355;28;20828;-60
2022/05/05 08:57:48;;;;;;;7.20;5.43;;;;;;;13.52;68.77;94184.16;4991051;28;20050;-64
2022/05/05 09:00:16;;;;;;;9.83;7.23;;;;;;;12.19;72.94;94181.22;4990639;28;20042;-59
2022/05/05 09:02:43;;;;;;;9.95;7.25;;;;;;;12.41;73.70;94186.38;4991123;28;20050;-60
2022/05/05 09:05:12;;;;;;;10.75;7.50;;;;;;;12.05;76.78;94186.97;4990776;28;20045;-59
2022/05/05 09:07:50;;;;;;;10.60;7.53;;;;;;;11.62;76.36;94182.91;4990925;28;20739;-64
2022/05/05 09:10:19;;;;;;;9.23;6.80;;;;;;;12.85;73.54;94182.38;4989634;28;20648;-63
2022/05/05 09:12:57;;;;;;;10.57;7.93;;;;;;;11.88;75.95;94188.81;4981586;28;20495;-59
2022/05/05 09:15:30;;;;;;;10.57;7.63;;;;;;;12.45;75.63;94187.84;4975010;28;20352;-62
2022/05/05 09:18:17;;;;;;;9.02;6.72;;;;;;;13.51;71.75;94185.38;4983616;28;20049;-58
2022/05/05 09:20:46;;;;;;;10.55;6.55;;;;;;;14.38;69.57;94188.41;4990794;28;20046;-58
2022/05/05 09:26:27;;;;;;;12.67;8.20;;;;;;;13.31;69.41;94188.19;4989733;28;20373;-59
2022/05/05 09:28:55;;;;;;;9.85;7.10;;;;;;;13.51;69.43;94188.91;4972806;28;20657;-59
2022/05/05 09:31:22;;;;;;;10.05;6.75;;;;;;;14.19;68.01;94194.84;4990556;28;20050;-59
2022/05/05 09:33:50;;;;;;;12.00;7.80;;;;;;;13.65;69.23;94193.34;4990556;28;20072;-59
2022/05/05 09:36:25;;;;;;;13.20;7.80;;;;;;;14.10;68.17;94194.66;4989544;28;20751;-59
2022/05/05 09:39:14;;;;;;;11.13;7.57;;;;;;;13.89;68.89;94193.19;4989883;28;20060;-60
2022/05/05 09:41:45;;;;;;;12.32;7.57;;;;;;;13.40;70.89;94196.66;4990430;28;20047;-63
2022/05/05 09:44:14;;;;;;;10.32;7.72;;;;;;;13.37;70.17;94198.28;4990164;28;20048;-58
2022/05/05 09:46:44;;;;;;;9.60;7.07;;;;;;;13.85;68.12;94198.78;4990409;28;20103;-59
2022/05/05 09:49:16;;;;;;;9.85;6.97;;;;;;;13.84;68.59;94194.47;4989842;28;20573;-58
2022/05/05 09:51:43;;;;;;;9.87;6.97;;;;;;;14.26;68.03;94197.41;4973100;28;20060;-61
2022/05/05 09:59:51;;;;;;;9.15;6.50;;;;;;;14.35;66.55;94207.84;4990225;28;20060;-60
2022/05/05 10:05:16;;;;;;;9.87;7.00;;;;;;;13.63;68.18;94200.50;4991352;28;20043;-58
2022/05/05 10:07:44;;;;;;;10.98;7.38;;;;;;;14.51;65.94;94202.31;4994130;28;20061;-60
2022/05/05 10:10:15;;;;;;;9.55;6.68;;;;;;;14.31;66.10;94207.16;4976494;28;20993;-59
2022/05/05 10:12:44;;;;;;;9.07;6.47;;;;;;;15.13;64.16;94209.75;4994604;28;20053;-58
2022/05/05 10:15:12;;;;;;;10.30;7.07;;;;;;;14.73;65.13;94201.78;4993880;28;20046;-58
2022/05/05 10:17:40;;;;;;;9.20;7.00;;;;;;;14.16;66.56;94207.50;4994128;28;20049;-58
2022/05/05 10:20:10;;;;;;;9.75;6.85;;;;;;;13.95;66.84;94197.75;4993839;28;20530;-59
2022/05/05 10:22:45;;;;;;;9.57;7.38;;;;;;;13.50;68.36;94203.91;4994052;28;20392;-60
2022/05/05 10:25:20;;;;;;;10.25;6.97;;;;;;;14.33;66.91;94202.75;4976083;28;20043;-59
2022/05/05 10:27:48;;;;;;;9.23;6.85;;;;;;;13.11;70.48;94201.94;4976782;28;20046;-61
2022/05/05 10:30:34;;;;;;;10.27;7.03;;;;;;;14.29;66.97;94202.06;4976336;28;20049;-59
2022/05/05 10:33:08;;;;;;;9.38;6.88;;;;;;;14.62;65.51;94198.53;4993468;28;20478;-60
2022/05/05 10:35:47;;;;;;;19.55;11.45;;;;;;;13.94;67.30;94193.47;4993847;28;20044;-59
2022/05/05 10:38:42;;;;;;;10.05;7.50;;;;;;;13.00;69.84;94193.91;4993445;28;20042;-62
2022/05/05 10:41:31;;;;;;;10.77;8.30;;;;;;;12.61;72.52;94189.16;4993130;28;20491;-59
2022/05/05 10:44:24;;;;;;;10.63;8.03;;;;;;;12.82;71.36;94198.97;4967742;28;20384;-60
2022/05/05 10:47:05;;;;;;;10.02;7.25;;;;;;;12.98;69.38;94190.81;4982051;28;20524;-59
2022/05/05 10:49:32;;;;;;;10.52;7.15;;;;;;;13.79;68.25;94192.22;4992851;28;20394;-61
2022/05/05 10:52:10;;;;;;;10.60;7.07;;;;;;;14.24;66.86;94190.78;4993302;28;20052;-59
2022/05/05 10:54:42;;;;;;;9.93;6.88;;;;;;;14.89;65.37;94187.91;4993688;28;20165;-59
2022/05/05 10:57:27;;;;;;;9.23;6.93;;;;;;;14.82;65.12;94190.88;4992954;28;20097;-59
2022/05/05 11:00:13;;;;;;;9.63;7.13;;;;;;;14.81;65.93;94194.84;4993055;28;20490;-62
2022/05/05 11:02:58;;;;;;;9.52;6.68;;;;;;;16.04;62.86;94184.56;4993446;28;20096;-58
2022/05/05 11:05:30;;;;;;;13.55;7.00;;;;;;;15.97;59.90;94179.22;4991252;28;20045;-59
2022/05/05 11:08:10;;;;;;;9.15;6.10;;;;;;;15.95;61.01;94176.91;4992552;28;20046;-62
2022/05/05 11:10:48;;;;;;;9.17;6.90;;;;;;;14.13;65.47;94183.53;4992623;28;20062;-60
2022/05/05 11:13:36;;;;;;;10.38;6.47;;;;;;;15.00;64.39;94184.84;4992531;28;20047;-62
2022/05/05 11:22:17;;;;;;;9.23;6.72;;;;;;;14.58;62.66;94182.03;4973230;28;20372;-60
2022/05/05 11:24:46;;;;;;;8.43;6.23;;;;;;;15.12;63.62;94188.88;4973482;28;20062;-60
2022/05/05 11:27:16;;;;;;;8.30;5.80;;;;;;;15.89;61.63;94175.91;4955883;28;20172;-59
2022/05/05 11:30:02;;;;;;;7.82;5.93;;;;;;;15.97;59.93;94170.94;4973463;28;20403;-59
2022/05/05 11:32:33;;;;;;;9.82;6.78;;;;;;;15.46;62.33;94173.66;4972565;28;20661;-58
2022/05/05 11:35:01;;;;;;;8.50;6.22;;;;;;;15.98;61.32;94164.94;4972828;28;20043;-58
2022/05/05 11:37:29;;;;;;;8.23;5.97;;;;;;;16.69;59.31;94165.78;4956069;28;20484;-58
2022/05/05 11:39:56;;;;;;;7.88;5.88;;;;;;;17.18;57.36;94159.69;4972824;28;20034;-58
2022/05/05 11:42:23;;;;;;;9.05;5.70;;;;;;;17.44;56.59;94157.53;4975361;28;20038;-59
2022/05/05 11:44:49;;;;;;;8.68;6.10;;;;;;;17.28;56.37;94157.75;4984499;28;20054;-59
2022/05/05 11:47:19;;;;;;;9.45;6.40;;;;;;;16.73;58.21;94158.88;4971101;28;20042;-60
2022/05/05 11:49:48;;;;;;;8.23;5.50;;;;;;;16.84;57.11;94161.31;4973045;28;20050;-59
2022/05/05 11:52:17;;;;;;;8.20;5.28;;;;;;;17.35;55.82;94160.28;4972678;28;20051;-59
2022/05/05 11:54:49;;;;;;;8.65;5.55;;;;;;;17.16;55.79;94154.63;4956061;28;20046;-65
2022/05/05 11:57:40;;;;;;;7.50;5.53;;;;;;;15.30;60.58;94163.47;4971078;28;20306;-59
2022/05/05 12:02:56;;;;;;;9.17;5.77;;;;;;;15.14;62.86;94148.50;4972639;28;20059;-59
2022/05/05 12:05:25;;;;;;;8.70;6.45;;;;;;;15.00;61.87;94159.22;4955618;28;20038;-58
2022/05/05 12:07:53;;;;;;;9.63;7.07;;;;;;;14.42;64.68;94152.44;4972497;28;20073;-59
2022/05/05 12:10:22;;;;;;;9.20;6.60;;;;;;;15.04;63.70;94154.34;4955077;28;20510;-62
2022/05/05 12:13:00;;;;;;;9.45;6.13;;;;;;;15.84;60.45;94150.81;4955067;28;20081;-61
2022/05/05 12:15:27;;;;;;;7.87;5.90;;;;;;;16.05;59.52;94146.56;4972928;28;20042;-60
2022/05/05 12:17:57;;;;;;;7.97;5.90;;;;;;;15.17;60.51;94150.41;4984934;28;20043;-63
2022/05/05 12:20:28;;;;;;;8.10;5.70;;;;;;;16.15;59.42;94142.66;4974541;28;20526;-60
2022/05/05 12:23:00;;;;;;;7.95;5.80;;;;;;;16.69;57.67;94143.63;4991378;28;20076;-59
2022/05/05 12:25:28;;;;;;;6.80;5.32;;;;;;;16.15;58.67;94139.91;4991994;28;20525;-60